createdAt,value
2019-04-22T00:00:41.290Z,100724.00
2019-04-22T00:03:14.204Z,100729.00
2019-04-22T00:06:00.938Z,100733.00
2019-04-22T00:08:35.783Z,100734.00
2019-04-22T00:11:14.656Z,100719.00
2019-04-22T00:13:46.872Z,100718.00
2019-04-22T00:16:08.930Z,100720.00
2019-04-22T00:18:57.846Z,100718.00
2019-04-22T00:21:22.543Z,100718.00
2019-04-22T00:23:49.548Z,100712.00
2019-04-22T00:28:52.897Z,100717.00
2019-04-22T00:31:21.007Z,100714.00
2019-04-22T00:33:51.758Z,100720.00
2019-04-22T00:36:24.015Z,100715.00
2019-04-22T00:39:04.797Z,100714.00
2019-04-22T00:41:34.174Z,100714.00
2019-04-22T00:44:02.947Z,100711.00
2019-04-22T00:46:34.021Z,100716.00
2019-04-22T00:49:46.422Z,100710.00
2019-04-22T00:51:36.423Z,100706.00
2019-04-22T00:54:01.011Z,100712.00
2019-04-22T00:56:27.735Z,100716.00
2019-04-22T00:59:01.713Z,100708.00
2019-04-22T01:01:55.838Z,100708.00
2019-04-22T01:04:12.561Z,100716.00
2019-04-22T01:06:51.619Z,100712.00
2019-04-22T01:09:10.802Z,100716.00
2019-04-22T01:11:37.713Z,100717.00
2019-04-22T01:14:07.817Z,100716.00
2019-04-22T01:16:43.184Z,100709.00
2019-04-22T01:19:12.233Z,100720.00
2019-04-22T01:21:44.977Z,100718.00
2019-04-22T01:24:17.276Z,100714.00
2019-04-22T01:26:47.710Z,100726.00
2019-04-22T01:29:12.663Z,100725.00
2019-04-22T01:31:35.241Z,100724.00
2019-04-22T01:34:19.871Z,100728.00
2019-04-22T01:36:55.372Z,100733.00
2019-04-22T01:39:40.306Z,100729.00
2019-04-22T01:42:06.171Z,100721.00
2019-04-22T01:44:40.287Z,100715.00
2019-04-22T01:47:10.109Z,100713.00
2019-04-22T01:49:40.581Z,100719.00
2019-04-22T01:52:11.474Z,100708.00
2019-04-22T01:57:14.110Z,100721.00
2019-04-22T01:59:40.401Z,100716.00
2019-04-22T02:02:16.384Z,100708.00
2019-04-22T02:04:53.712Z,100702.00
2019-04-22T02:07:35.534Z,100718.00
2019-04-22T02:09:53.676Z,100710.00
2019-04-22T02:14:53.916Z,100718.00
2019-04-22T02:17:31.485Z,100714.00
2019-04-22T02:19:57.862Z,100720.00
2019-04-22T02:22:42.952Z,100711.00
2019-04-22T02:24:59.217Z,100714.00
2019-04-22T02:27:37.624Z,100722.00
2019-04-22T02:29:57.867Z,100717.00
2019-04-22T02:35:11.598Z,100728.00
2019-04-22T02:37:54.969Z,100725.00
2019-04-22T02:40:39.041Z,100727.00
2019-04-22T02:42:34.904Z,100724.00
2019-04-22T02:45:07.678Z,100727.00
2019-04-22T02:47:45.499Z,100722.00
2019-04-22T02:50:08.914Z,100725.00
2019-04-22T02:52:42.921Z,100717.00
2019-04-22T02:55:17.138Z,100731.00
2019-04-22T03:02:58.900Z,100742.00
2019-04-22T03:05:27.955Z,100739.00
2019-04-22T03:07:58.973Z,100738.00
2019-04-22T03:10:29.435Z,100739.00
2019-04-22T03:12:52.418Z,100739.00
2019-04-22T03:15:20.360Z,100736.00
2019-04-22T03:18:00.831Z,100739.00
2019-04-22T03:20:29.344Z,100745.00
2019-04-22T03:23:05.850Z,100749.00
2019-04-22T03:28:06.381Z,100752.00
2019-04-22T03:33:19.247Z,100738.00
2019-04-22T03:35:45.163Z,100740.00
2019-04-22T03:38:07.264Z,100740.00
2019-04-22T03:40:47.256Z,100746.00
2019-04-22T03:43:14.179Z,100745.00
2019-04-22T03:45:51.300Z,100749.00
2019-04-22T03:51:11.487Z,100740.00
2019-04-22T03:53:33.630Z,100738.00
2019-04-22T03:55:56.843Z,100745.00
2019-04-22T03:58:16.645Z,100746.00
2019-04-22T04:00:55.899Z,100744.00
2019-04-22T04:03:19.309Z,100746.00
2019-04-22T04:11:07.015Z,100742.00
2019-04-22T04:15:57.669Z,100734.00
2019-04-22T04:18:44.618Z,100731.00
2019-04-22T04:31:22.290Z,100750.00
2019-04-22T04:33:57.687Z,100749.00
2019-04-22T04:36:11.581Z,100755.00
2019-04-22T04:38:45.705Z,100759.00
2019-04-22T04:41:16.818Z,100759.00
2019-04-22T04:46:24.409Z,100748.00
2019-04-22T04:48:58.480Z,100757.00
2019-04-22T04:54:13.152Z,100764.00
2019-04-22T04:59:05.275Z,100767.00
2019-04-22T05:01:30.909Z,100775.00
2019-04-22T05:11:43.003Z,100769.00
2019-04-22T05:18:58.895Z,100775.00
2019-04-22T05:21:21.823Z,100783.00
2019-04-22T05:24:03.352Z,100779.00
2019-04-22T05:26:35.515Z,100776.00
2019-04-22T05:29:06.181Z,100780.00
2019-04-22T05:34:04.313Z,100787.00
2019-04-22T05:36:34.479Z,100783.00
2019-04-22T05:39:06.197Z,100785.00
2019-04-22T05:41:35.273Z,100787.00
2019-04-22T05:44:08.669Z,100792.00
2019-04-22T05:46:34.464Z,100796.00
2019-04-22T05:49:14.946Z,100805.00
2019-04-22T05:54:14.757Z,100795.00
2019-04-22T05:59:32.486Z,100791.00
2019-04-22T06:01:52.252Z,100792.00
2019-04-22T06:04:19.851Z,100795.00
2019-04-22T06:06:46.940Z,100795.00
2019-04-22T06:09:24.862Z,100793.00
2019-04-22T06:11:46.467Z,100800.00
2019-04-22T06:14:24.839Z,100794.00
2019-04-22T06:19:31.536Z,100797.00
2019-04-22T06:22:04.244Z,100790.00
2019-04-22T06:24:33.753Z,100789.00
2019-04-22T06:27:14.867Z,100795.00
2019-04-22T06:29:31.873Z,100792.00
2019-04-22T06:32:26.589Z,100787.00
2019-04-22T06:34:45.971Z,100784.00
2019-04-22T06:37:16.090Z,100796.00
2019-04-22T06:39:40.148Z,100791.00
2019-04-22T06:42:13.709Z,100782.00
2019-04-22T06:44:44.845Z,100790.00
2019-04-22T06:47:14.825Z,100787.00
2019-04-22T06:52:17.845Z,100795.00
2019-04-22T06:54:48.965Z,100792.00
2019-04-22T06:57:24.236Z,100802.00
2019-04-22T06:59:53.754Z,100791.00
2019-04-22T07:02:30.608Z,100795.00
2019-04-22T07:04:56.295Z,100797.00
2019-04-22T07:07:38.420Z,100794.00
2019-04-22T07:10:23.677Z,100789.00
2019-04-22T07:12:29.145Z,100788.00
2019-04-22T07:15:02.809Z,100777.00
2019-04-22T07:17:39.447Z,100797.00
2019-04-22T07:20:01.963Z,100792.00
2019-04-22T07:22:45.394Z,100782.00
2019-04-22T07:25:06.273Z,100781.00
2019-04-22T07:27:34.465Z,100783.00
2019-04-22T07:30:08.598Z,100788.00
2019-04-22T07:32:59.226Z,100784.00
2019-04-22T07:35:19.292Z,100787.00
2019-04-22T07:40:13.748Z,100789.00
2019-04-22T07:42:45.772Z,100785.00
2019-04-22T07:45:22.578Z,100797.00
2019-04-22T07:47:46.588Z,100786.00
2019-04-22T07:50:20.524Z,100795.00
2019-04-22T07:52:47.018Z,100798.00
2019-04-22T07:55:14.476Z,100795.00
2019-04-22T07:58:05.440Z,100791.00
2019-04-22T08:00:27.371Z,100797.00
2019-04-22T08:03:05.058Z,100803.00
2019-04-22T08:05:26.328Z,100797.00
2019-04-22T08:08:05.283Z,100801.00
2019-04-22T08:10:30.966Z,100794.00
2019-04-22T08:12:57.933Z,100800.00
2019-04-22T08:15:28.002Z,100798.00
2019-04-22T08:20:37.233Z,100800.00
2019-04-22T08:23:09.039Z,100805.00
2019-04-22T08:25:38.819Z,100808.00
2019-04-22T08:28:25.532Z,100796.00
2019-04-22T08:30:56.802Z,100798.00
2019-04-22T08:36:06.410Z,100802.00
2019-04-22T08:38:35.670Z,100804.00
2019-04-22T08:41:28.358Z,100800.00
2019-04-22T08:43:57.359Z,100808.00
2019-04-22T08:46:40.378Z,100810.00
2019-04-22T08:49:10.189Z,100806.00
2019-04-22T08:51:42.131Z,100807.00
2019-04-22T08:54:18.283Z,100812.00
2019-04-22T08:59:19.489Z,100806.00
2019-04-22T09:01:51.765Z,100813.00
2019-04-22T09:04:16.234Z,100796.00
2019-04-22T09:07:09.170Z,100806.00
2019-04-22T09:09:27.015Z,100816.00
2019-04-22T09:12:15.380Z,100812.00
2019-04-22T09:14:32.425Z,100804.00
2019-04-22T09:17:04.100Z,100813.00
2019-04-22T09:19:28.464Z,100816.00
2019-04-22T09:22:06.328Z,100820.00
2019-04-22T09:24:35.622Z,100814.00
2019-04-22T09:27:03.450Z,100805.00
2019-04-22T09:29:41.580Z,100801.00
2019-04-22T09:32:11.322Z,100795.00
2019-04-22T09:34:39.862Z,100798.00
2019-04-22T09:37:20.417Z,100805.00
2019-04-22T09:39:41.098Z,100800.00
2019-04-22T09:42:14.470Z,100797.00
2019-04-22T09:47:12.894Z,100807.00
2019-04-22T09:49:51.834Z,100797.00
2019-04-22T09:52:16.181Z,100797.00
2019-04-22T09:54:57.580Z,100790.00
2019-04-22T09:57:21.206Z,100794.00
2019-04-22T10:00:00.146Z,100797.00
2019-04-22T10:02:24.996Z,100801.00
2019-04-22T10:04:57.207Z,100796.00
2019-04-22T10:07:25.722Z,100793.00
2019-04-22T10:10:04.707Z,100794.00
2019-04-22T10:12:32.431Z,100786.00
2019-04-22T10:14:55.500Z,100790.00
2019-04-22T10:17:25.114Z,100783.00
2019-04-22T10:20:02.416Z,100772.00
2019-04-22T10:25:08.711Z,100789.00
2019-04-22T10:27:32.705Z,100787.00
2019-04-22T10:30:02.783Z,100785.00
2019-04-22T10:32:37.959Z,100785.00
2019-04-22T10:34:58.761Z,100788.00
2019-04-22T10:37:24.271Z,100784.00
2019-04-22T10:39:58.787Z,100776.00
2019-04-22T10:42:25.214Z,100777.00
2019-04-22T10:44:55.570Z,100771.00
2019-04-22T10:47:25.716Z,100769.00
2019-04-22T10:49:56.297Z,100766.00
2019-04-22T10:52:25.953Z,100772.00
2019-04-22T10:54:55.811Z,100772.00
2019-04-22T10:57:25.637Z,100778.00
2019-04-22T10:59:56.502Z,100779.00
2019-04-22T11:02:27.600Z,100777.00
2019-04-22T11:04:58.463Z,100783.00
2019-04-22T11:07:37.311Z,100783.00
2019-04-22T11:10:17.851Z,100795.00
2019-04-22T11:12:35.256Z,100781.00
2019-04-22T11:15:03.497Z,100783.00
2019-04-22T11:17:33.545Z,100793.00
2019-04-22T11:20:03.779Z,100779.00
2019-04-22T11:22:36.819Z,100784.00
2019-04-22T11:25:09.797Z,100771.00
2019-04-22T11:27:39.503Z,100791.00
2019-04-22T11:30:13.425Z,100788.00
2019-04-22T11:32:44.647Z,100784.00
2019-04-22T11:35:16.149Z,100788.00
2019-04-22T11:37:46.604Z,100792.00
2019-04-22T11:40:25.374Z,100784.00
2019-04-22T11:42:50.188Z,100785.00
2019-04-22T11:45:21.534Z,100772.00
2019-04-22T11:47:51.255Z,100783.00
2019-04-22T11:50:24.211Z,100792.00
2019-04-22T11:52:55.011Z,100791.00
2019-04-22T11:55:26.692Z,100791.00
2019-04-22T11:57:56.623Z,100799.00
2019-04-22T12:00:32.768Z,100792.00
2019-04-22T12:03:03.174Z,100787.00
2019-04-22T12:05:34.341Z,100778.00
2019-04-22T12:08:04.981Z,100781.00
2019-04-22T12:10:42.978Z,100776.00
2019-04-22T12:13:08.101Z,100769.00
2019-04-22T12:15:37.864Z,100760.00
2019-04-22T12:18:09.001Z,100764.00
2019-04-22T12:20:39.202Z,100758.00
2019-04-22T12:23:09.448Z,100759.00
2019-04-22T12:25:47.611Z,100758.00
2019-04-22T12:28:11.132Z,100757.00
2019-04-22T12:30:41.757Z,100759.00
2019-04-22T12:33:14.564Z,100750.00
2019-04-22T12:35:42.509Z,100746.00
2019-04-22T12:38:13.154Z,100744.00
2019-04-22T12:40:52.278Z,100748.00
2019-04-22T12:43:18.095Z,100742.00
2019-04-22T12:45:45.890Z,100741.00
2019-04-22T12:48:15.388Z,100730.00
2019-04-22T12:50:48.039Z,100734.00
2019-04-22T12:53:19.852Z,100729.00
2019-04-22T12:55:48.091Z,100730.00
2019-04-22T12:58:18.109Z,100726.00
2019-04-22T13:00:48.460Z,100714.00
2019-04-22T13:03:18.313Z,100723.00
2019-04-22T13:05:49.317Z,100720.00
2019-04-22T13:08:20.007Z,100706.00
2019-04-22T13:10:57.445Z,100693.00
2019-04-22T13:13:20.893Z,100699.00
2019-04-22T13:15:51.008Z,100694.00
2019-04-22T13:18:31.077Z,100699.00
2019-04-22T13:20:52.857Z,100692.00
2019-04-22T13:23:22.458Z,100689.00
2019-04-22T13:25:52.663Z,100686.00
2019-04-22T13:28:23.035Z,100672.00
2019-04-22T13:30:52.832Z,100672.00
2019-04-22T13:33:23.183Z,100665.00
2019-04-22T13:35:54.349Z,100653.00
2019-04-22T13:38:24.939Z,100647.00
2019-04-22T13:41:09.820Z,100656.00
2019-04-22T13:43:27.065Z,100651.00
2019-04-22T13:45:58.038Z,100646.00
2019-04-22T13:48:46.404Z,100638.00
2019-04-22T13:51:32.612Z,100641.00
2019-04-22T13:54:30.118Z,100631.00
2019-04-22T13:56:19.140Z,100633.00
2019-04-22T13:58:48.456Z,100621.00
2019-04-22T14:01:14.669Z,100629.00
2019-04-22T14:03:52.621Z,100626.00
2019-04-22T14:06:22.657Z,100616.00
2019-04-22T14:08:53.422Z,100606.00
2019-04-22T14:11:32.706Z,100609.00
2019-04-22T14:13:54.302Z,100603.00
2019-04-22T14:16:24.859Z,100600.00
2019-04-22T14:18:54.318Z,100601.00
2019-04-22T14:21:24.945Z,100589.00
2019-04-22T14:23:54.401Z,100596.00
2019-04-22T14:26:25.065Z,100592.00
2019-04-22T14:28:55.700Z,100587.00
2019-04-22T14:31:26.540Z,100580.00
2019-04-22T14:34:01.436Z,100579.00
2019-04-22T14:36:27.604Z,100587.00
2019-04-22T14:38:57.764Z,100579.00
2019-04-22T14:41:40.681Z,100568.00
2019-04-22T14:45:00.799Z,100574.00
2019-04-22T14:47:02.173Z,100568.00
2019-04-22T14:49:24.038Z,100559.00
2019-04-22T14:51:57.679Z,100556.00
2019-04-22T14:54:21.169Z,100554.00
2019-04-22T14:56:36.078Z,100550.00
2019-04-22T14:59:06.985Z,100561.00
2019-04-22T15:01:39.448Z,100555.00
2019-04-22T15:04:08.966Z,100559.00
2019-04-22T15:06:40.073Z,100552.00
2019-04-22T15:09:10.321Z,100551.00
2019-04-22T15:11:52.865Z,100560.00
2019-04-22T15:14:11.649Z,100545.00
2019-04-22T15:16:42.833Z,100542.00
2019-04-22T15:19:17.900Z,100539.00
2019-04-22T15:21:47.575Z,100531.00
2019-04-22T15:24:27.541Z,100512.00
2019-04-22T15:26:58.844Z,100518.00
2019-04-22T15:29:29.596Z,100518.00
2019-04-22T15:31:59.961Z,100529.00
2019-04-22T15:34:30.642Z,100525.00
2019-04-22T15:37:02.163Z,100533.00
2019-04-22T15:39:31.765Z,100525.00
2019-04-22T15:42:11.693Z,100533.00
2019-04-22T15:44:33.812Z,100548.00
2019-04-22T15:47:04.838Z,100530.00
2019-04-22T15:49:35.747Z,100533.00
2019-04-22T15:52:07.536Z,100530.00
2019-04-22T15:54:37.615Z,100528.00
2019-04-22T15:57:08.723Z,100518.00
2019-04-22T15:59:54.086Z,100518.00
2019-04-22T16:02:10.072Z,100532.00
2019-04-22T16:04:41.224Z,100523.00
2019-04-22T16:07:10.970Z,100520.00
2019-04-22T16:09:41.616Z,100505.00
2019-04-22T16:12:20.008Z,100519.00
2019-04-22T16:14:49.498Z,100516.00
2019-04-22T16:17:15.058Z,100526.00
2019-04-22T16:19:45.137Z,100517.00
2019-04-22T16:22:19.126Z,100526.00
2019-04-22T16:25:04.847Z,100529.00
2019-04-22T16:27:34.456Z,100534.00
2019-04-22T16:30:05.522Z,100533.00
2019-04-22T16:32:37.098Z,100521.00
2019-04-22T16:35:08.724Z,100532.00
2019-04-22T16:37:38.992Z,100537.00
2019-04-22T16:40:09.349Z,100536.00
2019-04-22T16:42:45.948Z,100524.00
2019-04-22T16:45:11.518Z,100536.00
2019-04-22T16:47:41.834Z,100544.00
2019-04-22T16:50:12.014Z,100534.00
2019-04-22T16:52:41.792Z,100548.00
2019-04-22T16:55:12.826Z,100536.00
2019-04-22T16:57:43.980Z,100543.00
2019-04-22T17:00:16.737Z,100552.00
2019-04-22T17:03:04.760Z,100544.00
2019-04-22T17:05:53.632Z,100553.00
2019-04-22T17:08:24.590Z,100551.00
2019-04-22T17:10:54.118Z,100544.00
2019-04-22T17:13:27.250Z,100545.00
2019-04-22T17:15:58.574Z,100550.00
2019-04-22T17:18:27.369Z,100554.00
2019-04-22T17:20:58.471Z,100547.00
2019-04-22T17:23:29.551Z,100546.00
2019-04-22T17:26:00.676Z,100549.00
2019-04-22T17:28:31.317Z,100548.00
2019-04-22T17:31:01.916Z,100547.00
2019-04-22T17:33:32.704Z,100550.00
2019-04-22T17:36:03.342Z,100556.00
2019-04-22T17:38:44.038Z,100558.00
2019-04-22T17:41:18.731Z,100567.00
2019-04-22T17:43:59.132Z,100559.00
2019-04-22T17:46:33.636Z,100566.00
2019-04-22T17:49:15.417Z,100569.00
2019-04-22T17:51:55.062Z,100559.00
2019-04-22T17:54:19.736Z,100569.00
2019-04-22T17:56:48.610Z,100572.00
2019-04-22T17:59:20.390Z,100579.00
2019-04-22T18:01:55.126Z,100576.00
2019-04-22T18:04:08.630Z,100577.00
2019-04-22T18:07:02.912Z,100588.00
2019-04-22T18:09:53.666Z,100583.00
2019-04-22T18:12:12.175Z,100587.00
2019-04-22T18:17:11.558Z,100589.00
2019-04-22T18:19:39.644Z,100595.00
2019-04-22T18:22:03.678Z,100596.00
2019-04-22T18:24:32.627Z,100602.00
2019-04-22T18:27:31.950Z,100603.00
2019-04-22T18:29:43.350Z,100606.00
2019-04-22T18:32:08.896Z,100605.00
2019-04-22T18:34:41.145Z,100612.00
2019-04-22T18:37:16.422Z,100607.00
2019-04-22T18:39:53.714Z,100611.00
2019-04-22T18:42:16.874Z,100611.00
2019-04-22T18:45:06.599Z,100609.00
2019-04-22T18:47:18.580Z,100615.00
2019-04-22T18:49:52.553Z,100614.00
2019-04-22T18:52:48.879Z,100616.00
2019-04-22T18:55:30.818Z,100615.00
2019-04-22T18:58:02.651Z,100618.00
2019-04-22T19:00:31.905Z,100622.00
2019-04-22T19:03:08.923Z,100619.00
2019-04-22T19:05:49.514Z,100615.00
2019-04-22T19:08:28.330Z,100626.00
2019-04-22T19:11:06.911Z,100620.00
2019-04-22T19:16:19.716Z,100623.00
2019-04-22T19:21:08.051Z,100626.00
2019-04-22T19:23:43.408Z,100622.00
2019-04-22T19:26:11.906Z,100628.00
2019-04-22T19:28:43.370Z,100622.00
2019-04-22T19:31:16.942Z,100628.00
2019-04-22T19:33:40.664Z,100622.00
2019-04-22T19:36:14.995Z,100629.00
2019-04-22T19:38:34.049Z,100618.00
2019-04-22T19:41:19.714Z,100626.00
2019-04-22T19:43:47.302Z,100627.00
2019-04-22T19:46:16.738Z,100626.00
2019-04-22T19:49:00.301Z,100618.00
2019-04-22T19:51:27.957Z,100615.00
2019-04-22T19:53:55.945Z,100616.00
2019-04-22T19:56:20.757Z,100610.00
2019-04-22T19:58:53.488Z,100614.00
2019-04-22T20:01:39.633Z,100611.00
2019-04-22T20:04:15.074Z,100617.00
2019-04-22T20:06:41.300Z,100615.00
2019-04-22T20:09:22.455Z,100624.00
2019-04-22T20:11:43.887Z,100620.00
2019-04-22T20:14:28.106Z,100616.00
2019-04-22T20:16:43.909Z,100616.00
2019-04-22T20:19:25.217Z,100622.00
2019-04-22T20:21:51.973Z,100615.00
2019-04-22T20:24:12.337Z,100621.00
2019-04-22T20:27:14.922Z,100618.00
2019-04-22T20:29:30.959Z,100614.00
2019-04-22T20:31:59.295Z,100628.00
2019-04-22T20:34:33.781Z,100615.00
2019-04-22T20:39:38.018Z,100622.00
2019-04-22T20:42:16.627Z,100625.00
2019-04-22T20:44:39.620Z,100627.00
2019-04-22T20:47:04.594Z,100625.00
2019-04-22T20:49:40.339Z,100625.00
2019-04-22T20:52:13.708Z,100627.00
2019-04-22T20:54:40.800Z,100617.00
2019-04-22T20:57:07.468Z,100623.00
2019-04-22T20:59:40.557Z,100632.00
2019-04-22T21:02:09.620Z,100627.00
2019-04-22T21:04:40.858Z,100624.00
2019-04-22T21:07:13.828Z,100617.00
2019-04-22T21:09:50.529Z,100620.00
2019-04-22T21:12:13.737Z,100622.00
2019-04-22T21:14:58.166Z,100622.00
2019-04-22T21:17:25.060Z,100627.00
2019-04-22T21:20:00.682Z,100625.00
2019-04-22T21:22:29.183Z,100619.00
2019-04-22T21:24:53.308Z,100623.00
2019-04-22T21:27:28.296Z,100622.00
2019-04-22T21:29:50.725Z,100615.00
2019-04-22T21:32:32.884Z,100614.00
2019-04-22T21:35:19.830Z,100624.00
2019-04-22T21:37:51.018Z,100626.00
2019-04-22T21:39:56.837Z,100624.00
2019-04-22T21:42:38.337Z,100619.00
2019-04-22T21:45:04.758Z,100623.00
2019-04-22T21:47:44.383Z,100615.00
2019-04-22T21:50:31.001Z,100618.00
2019-04-22T21:52:42.611Z,100610.00
2019-04-22T21:55:10.224Z,100611.00
2019-04-22T21:57:53.383Z,100608.00
2019-04-22T22:00:22.655Z,100615.00
2019-04-22T22:02:52.568Z,100611.00
2019-04-22T22:05:12.561Z,100609.00
2019-04-22T22:07:32.922Z,100613.00
2019-04-22T22:10:21.191Z,100604.00
2019-04-22T22:12:54.845Z,100609.00
2019-04-22T22:15:24.705Z,100605.00
2019-04-22T22:17:55.469Z,100603.00
2019-04-22T22:20:22.727Z,100599.00
2019-04-22T22:23:09.162Z,100600.00
2019-04-22T22:25:30.176Z,100603.00
2019-04-22T22:28:08.807Z,100598.00
2019-04-22T22:30:47.685Z,100586.00
2019-04-22T22:33:05.780Z,100592.00
2019-04-22T22:35:35.940Z,100590.00
2019-04-22T22:38:09.126Z,100593.00
2019-04-22T22:40:26.055Z,100579.00
2019-04-22T22:42:55.109Z,100579.00
2019-04-22T22:45:33.689Z,100586.00
2019-04-22T22:48:21.661Z,100588.00
2019-04-22T22:50:44.595Z,100587.00
2019-04-22T22:53:31.105Z,100569.00
2019-04-22T22:55:45.864Z,100573.00
2019-04-22T22:58:23.815Z,100567.00
2019-04-22T23:00:44.441Z,100570.00
2019-04-22T23:03:40.510Z,100570.00
2019-04-22T23:06:00.600Z,100561.00
2019-04-22T23:08:29.576Z,100554.00
2019-04-22T23:11:00.441Z,100561.00
2019-04-22T23:13:31.460Z,100559.00
2019-04-22T23:15:50.708Z,100564.00
2019-04-22T23:18:10.079Z,100551.00
2019-04-22T23:20:45.141Z,100558.00
2019-04-22T23:23:36.070Z,100555.00
2019-04-22T23:26:06.808Z,100551.00
2019-04-22T23:28:34.870Z,100558.00
2019-04-22T23:31:09.533Z,100543.00
2019-04-22T23:33:46.297Z,100555.00
2019-04-22T23:36:20.364Z,100535.00
2019-04-22T23:39:02.353Z,100537.00
2019-04-22T23:41:51.326Z,100534.00
2019-04-22T23:46:51.967Z,100529.00
2019-04-22T23:49:22.307Z,100524.00
2019-04-22T23:52:22.405Z,100527.00
2019-04-22T23:54:43.609Z,100516.00
2019-04-22T23:57:03.191Z,100519.00
